Time;durP1;ratioP1;P1;durP2;ratioP2;P2;SDS_P1;SDS_P2;PMS_P1;PMS_P2;Temp;Humidity;BMP_temperature;BMP_pressure;BME280_temperature;BME280_humidity;BME280_pressure;Samples;Min_cycle;Max_cycle;Signal;HPM_P1;HPM_P2
2022/03/12 00:00:37;;;;;;;2.17;1.35;;;;;;;21.40;nan;99226.13;5131207;27;20039;-58
2022/03/12 00:03:03;;;;;;;1.80;1.23;;;;;;;21.41;nan;99208.25;5131348;28;20040;-58
2022/03/12 00:05:30;;;;;;;2.78;1.35;;;;;;;21.40;nan;99209.44;5131151;28;20065;-58
2022/03/12 00:08:00;;;;;;;1.90;1.30;;;;;;;21.43;nan;99205.09;5131329;28;20039;-57
2022/03/12 00:10:31;;;;;;;2.40;1.40;;;;;;;21.44;nan;99215.06;5131135;28;20077;-58
2022/03/12 00:12:56;;;;;;;1.85;1.10;;;;;;;21.42;nan;99215.41;5130984;27;20047;-58
2022/03/12 00:15:22;;;;;;;1.80;1.20;;;;;;;21.43;nan;99203.13;5131027;28;20112;-58
2022/03/12 00:17:48;;;;;;;2.97;1.50;;;;;;;21.42;nan;99204.28;5130905;28;20133;-58
2022/03/12 00:20:18;;;;;;;1.90;1.20;;;;;;;21.42;nan;99207.06;5130928;28;20046;-58
2022/03/12 00:22:48;;;;;;;2.22;1.40;;;;;;;21.43;nan;99214.25;5130969;28;20069;-58
2022/03/12 00:25:16;;;;;;;2.50;1.60;;;;;;;21.41;nan;99207.47;5130735;28;20063;-58
2022/03/12 00:27:41;;;;;;;2.22;1.40;;;;;;;21.41;nan;99208.25;5131009;27;20043;-58
2022/03/12 00:30:09;;;;;;;1.90;1.20;;;;;;;21.41;nan;99204.69;5130852;28;20050;-58
2022/03/12 00:32:37;;;;;;;2.10;1.40;;;;;;;21.44;nan;99203.94;5130585;28;20135;-58
2022/03/12 00:35:08;;;;;;;1.77;1.15;;;;;;;21.41;nan;99199.13;5130455;28;20055;-57
2022/03/12 00:37:34;;;;;;;1.50;1.10;;;;;;;21.45;nan;99199.16;5130443;28;20425;-58
2022/03/12 00:39:59;;;;;;;1.95;1.20;;;;;;;21.43;nan;99208.69;5129800;28;20047;-58
2022/03/12 00:42:25;;;;;;;1.90;1.38;;;;;;;21.43;nan;99193.94;5130589;28;20046;-58
2022/03/12 00:44:50;;;;;;;1.98;1.33;;;;;;;21.43;nan;99203.13;5130667;28;20043;-58
2022/03/12 00:47:16;;;;;;;1.88;1.15;;;;;;;21.44;nan;99198.38;5130623;28;20062;-58
2022/03/12 00:49:43;;;;;;;2.35;1.30;;;;;;;21.42;nan;99192.34;5130717;28;20051;-58
2022/03/12 00:52:09;;;;;;;1.98;1.30;;;;;;;21.44;nan;99203.94;5130487;28;20070;-58
2022/03/12 00:54:36;;;;;;;1.88;1.23;;;;;;;21.45;nan;99201.94;5130392;28;20083;-58
2022/03/12 00:57:01;;;;;;;1.80;1.17;;;;;;;21.42;nan;99204.28;5130479;28;20047;-58
2022/03/12 00:59:27;;;;;;;2.05;1.25;;;;;;;21.43;nan;99200.34;5130448;28;20088;-59
2022/03/12 01:01:52;;;;;;;2.13;1.30;;;;;;;21.45;nan;99207.50;5130455;28;20043;-58
2022/03/12 01:04:18;;;;;;;1.85;1.17;;;;;;;21.42;nan;99195.94;5130462;28;20039;-58
2022/03/12 01:06:43;;;;;;;2.03;1.23;;;;;;;21.45;nan;99204.72;5130694;27;20138;-58
2022/03/12 01:09:11;;;;;;;2.22;1.45;;;;;;;21.45;nan;99196.38;5134291;28;20099;-58
2022/03/12 01:11:38;;;;;;;2.03;1.30;;;;;;;21.45;nan;99204.72;5134227;28;20067;-58
2022/03/12 01:14:04;;;;;;;2.08;1.38;;;;;;;21.45;nan;99201.94;5133960;28;20134;-58
2022/03/12 01:16:29;;;;;;;2.53;1.33;;;;;;;21.45;nan;99202.75;5134056;28;20475;-57
2022/03/12 01:18:55;;;;;;;2.55;1.40;;;;;;;21.43;nan;99197.56;5134087;28;20044;-58
2022/03/12 01:21:20;;;;;;;2.13;1.40;;;;;;;21.46;nan;99195.97;5134037;28;20074;-58
2022/03/12 01:23:47;;;;;;;2.13;1.27;;;;;;;21.47;nan;99205.13;5133918;28;20054;-58
2022/03/12 01:26:14;;;;;;;1.85;1.17;;;;;;;21.45;nan;99193.59;5133850;28;20043;-58
2022/03/12 01:28:40;;;;;;;2.70;1.48;;;;;;;21.45;nan;99183.25;5133693;28;20471;-58
2022/03/12 01:31:06;;;;;;;1.95;1.27;;;;;;;21.45;nan;99188.03;5133239;28;20130;-58
2022/03/12 01:33:31;;;;;;;1.48;1.02;;;;;;;21.45;nan;99182.47;5133892;28;20043;-58
2022/03/12 01:35:57;;;;;;;2.17;1.30;;;;;;;21.43;nan;99182.81;5133781;28;20046;-58
2022/03/12 01:38:47;;;;;;;1.52;0.90;;;;;;;21.40;nan;99176.06;5131331;28;20564;-58
2022/03/12 01:41:14;;;;;;;1.83;1.13;;;;;;;21.44;nan;99181.66;5133783;28;20165;-58
2022/03/12 01:43:43;;;;;;;1.50;1.10;;;;;;;21.44;nan;99181.66;5130937;28;20038;-58
2022/03/12 01:46:10;;;;;;;1.80;1.20;;;;;;;21.45;nan;99179.69;5133457;28;20043;-58
2022/03/12 01:48:43;;;;;;;1.70;0.90;;;;;;;21.43;nan;99180.88;5132446;28;20043;-58
2022/03/12 01:51:09;;;;;;;1.73;1.02;;;;;;;21.43;nan;99180.88;5133664;28;20070;-57
2022/03/12 01:53:35;;;;;;;1.70;1.00;;;;;;;21.42;nan;99182.03;5133378;28;20079;-58
2022/03/12 01:56:00;;;;;;;1.67;1.00;;;;;;;21.42;nan;99173.69;5133224;28;20051;-58
2022/03/12 01:58:26;;;;;;;1.90;1.20;;;;;;;21.43;nan;99178.09;5133362;28;20035;-58
2022/03/12 02:00:53;;;;;;;1.55;0.98;;;;;;;21.42;nan;99176.47;5133503;28;20135;-54
2022/03/12 02:03:29;;;;;;;1.50;1.00;;;;;;;21.41;nan;99177.66;5133108;28;20043;-52
2022/03/12 02:05:58;;;;;;;1.98;1.20;;;;;;;21.41;nan;99160.97;5133372;28;20043;-54
2022/03/12 02:08:24;;;;;;;1.48;0.98;;;;;;;21.43;nan;99157.78;5133295;28;20393;-53
2022/03/12 02:10:50;;;;;;;1.58;1.00;;;;;;;21.42;nan;99162.56;5133009;28;20116;-54
2022/03/12 02:13:17;;;;;;;1.58;0.95;;;;;;;21.41;nan;99160.97;5133116;28;20057;-54
2022/03/12 02:15:43;;;;;;;1.88;1.20;;;;;;;21.40;nan;99158.56;5133104;28;20368;-54
2022/03/12 02:18:09;;;;;;;1.67;1.00;;;;;;;21.42;nan;99164.53;5133040;27;20039;-53
2022/03/12 02:20:35;;;;;;;1.63;1.00;;;;;;;21.43;nan;99157.78;5132185;28;20039;-54
2022/03/12 02:23:01;;;;;;;2.00;1.30;;;;;;;21.41;nan;99162.94;5133038;28;20049;-53
2022/03/12 02:25:31;;;;;;;2.40;1.40;;;;;;;21.41;nan;99166.53;5133347;28;20410;-54
2022/03/12 02:27:59;;;;;;;1.92;1.25;;;;;;;21.40;nan;99167.72;5133275;28;20065;-59
2022/03/12 02:30:33;;;;;;;2.22;1.20;;;;;;;21.42;nan;99156.97;5133220;28;20035;-53
2022/03/12 02:33:01;;;;;;;2.25;1.42;;;;;;;21.44;nan;99162.19;5132884;28;20054;-54
2022/03/12 02:35:34;;;;;;;2.25;1.45;;;;;;;21.45;nan;99160.19;5132922;28;20044;-54
2022/03/12 02:38:00;;;;;;;2.38;1.40;;;;;;;21.40;nan;99159.38;5132930;28;20489;-53
2022/03/12 02:40:26;;;;;;;2.45;1.27;;;;;;;21.43;nan;99164.19;5132780;28;20150;-54
2022/03/12 02:42:57;;;;;;;2.53;1.50;;;;;;;21.42;nan;99151.41;5132825;28;20523;-54
2022/03/12 02:45:23;;;;;;;2.30;1.38;;;;;;;21.43;nan;99153.03;5132806;28;20054;-55
2022/03/12 02:47:50;;;;;;;2.20;1.30;;;;;;;21.43;nan;99152.22;5132777;28;20035;-53
2022/03/12 02:50:16;;;;;;;2.58;1.40;;;;;;;21.45;nan;99155.44;5132794;28;20171;-54
2022/03/12 02:52:44;;;;;;;2.20;1.40;;;;;;;21.41;nan;99147.03;5132732;28;20532;-54
2022/03/12 02:55:16;;;;;;;2.00;1.20;;;;;;;21.43;nan;99143.88;5132762;28;20054;-55
2022/03/12 02:57:45;;;;;;;2.40;1.52;;;;;;;21.45;nan;99152.66;5132735;28;20384;-54
2022/03/12 03:00:11;;;;;;;2.10;1.23;;;;;;;21.44;nan;99162.19;5132386;28;20051;-54
2022/03/12 03:02:40;;;;;;;2.13;1.42;;;;;;;21.43;nan;99164.19;5132651;28;20503;-51
2022/03/12 03:05:36;;;;;;;2.15;1.30;;;;;;;21.42;nan;99156.19;5132346;28;20043;-54
2022/03/12 03:08:11;;;;;;;2.20;1.30;;;;;;;21.43;nan;99155.00;5132404;28;20042;-54
2022/03/12 03:10:41;;;;;;;2.17;1.38;;;;;;;21.43;nan;99155.81;5132378;28;20080;-53
2022/03/12 03:13:16;;;;;;;2.05;1.38;;;;;;;21.41;nan;99158.16;5132263;28;20046;-50
2022/03/12 03:15:55;;;;;;;1.77;1.10;;;;;;;21.42;nan;99168.13;5132194;28;20532;-53
2022/03/12 03:18:23;;;;;;;1.70;1.15;;;;;;;21.45;nan;99165.78;5132434;28;20043;-52
2022/03/12 03:20:53;;;;;;;2.60;1.48;;;;;;;21.43;nan;99163.34;5132155;28;20039;-53
2022/03/12 03:23:22;;;;;;;2.15;1.23;;;;;;;21.44;nan;99153.84;5132283;28;20487;-54
2022/03/12 03:25:48;;;;;;;2.00;1.35;;;;;;;21.45;nan;99158.22;5130594;28;20043;-55
2022/03/12 03:28:14;;;;;;;2.03;1.23;;;;;;;21.42;nan;99151.41;5132003;28;20054;-55
2022/03/12 03:30:40;;;;;;;2.05;1.30;;;;;;;21.43;nan;99153.03;5131951;27;20591;-55
2022/03/12 03:33:11;;;;;;;1.98;1.27;;;;;;;21.43;nan;99161.41;5112030;28;20079;-53
2022/03/12 03:35:40;;;;;;;1.50;1.08;;;;;;;21.45;nan;99165.78;5131842;28;20410;-52
2022/03/12 03:38:11;;;;;;;1.80;1.17;;;;;;;21.43;nan;99161.41;5132027;28;20043;-54
2022/03/12 03:40:37;;;;;;;2.22;1.42;;;;;;;21.43;nan;99164.19;5132120;28;20095;-54
2022/03/12 03:43:06;;;;;;;2.28;1.40;;;;;;;21.43;nan;99157.78;5131839;28;20046;-53
2022/03/12 03:45:31;;;;;;;2.40;1.30;;;;;;;21.44;nan;99148.28;5131663;28;20039;-54
2022/03/12 03:47:57;;;;;;;2.67;1.40;;;;;;;21.44;nan;99148.28;5131690;28;20047;-54
2022/03/12 03:50:26;;;;;;;2.05;1.35;;;;;;;21.45;nan;99154.63;5131499;28;20395;-54
2022/03/12 03:53:03;;;;;;;2.08;1.23;;;;;;;21.42;nan;99161.75;5131539;28;20165;-54
2022/03/12 03:55:33;;;;;;;2.45;1.35;;;;;;;21.43;nan;99161.41;5131545;28;20043;-53
2022/03/12 03:57:59;;;;;;;2.42;1.40;;;;;;;21.43;nan;99161.41;5131579;28;20054;-53
2022/03/12 04:00:26;;;;;;;1.92;1.30;;;;;;;21.42;nan;99156.97;5131513;28;20047;-54
2022/03/12 04:03:01;;;;;;;2.38;1.38;;;;;;;21.42;nan;99156.97;5131345;28;20043;-54
2022/03/12 04:05:28;;;;;;;2.17;1.55;;;;;;;21.43;nan;99161.41;5130100;28;20039;-53
2022/03/12 04:07:54;;;;;;;2.50;1.48;;;;;;;21.43;nan;99158.59;5131303;28;20039;-54
2022/03/12 04:10:19;;;;;;;2.30;1.60;;;;;;;21.42;nan;99156.97;5131023;28;20049;-53
2022/03/12 04:12:45;;;;;;;2.10;1.50;;;;;;;21.43;nan;99158.59;5131242;28;20054;-53
2022/03/12 04:15:12;;;;;;;2.55;1.50;;;;;;;21.44;nan;99151.06;5130994;28;20039;-53
2022/03/12 04:17:37;;;;;;;2.20;1.50;;;;;;;21.43;nan;99147.47;5131159;28;20077;-55
2022/03/12 04:20:03;;;;;;;2.00;1.40;;;;;;;21.42;nan;99156.97;5131283;28;20754;-55
2022/03/12 04:22:31;;;;;;;3.33;2.03;;;;;;;21.45;nan;99166.56;5130923;28;20565;-54
2022/03/12 04:24:56;;;;;;;2.10;1.40;;;;;;;21.43;nan;99164.19;5130936;28;20452;-55
2022/03/12 04:27:22;;;;;;;2.95;1.90;;;;;;;21.45;nan;99158.22;5131088;28;20047;-52
2022/03/12 04:29:47;;;;;;;2.90;1.60;;;;;;;21.46;nan;99168.16;5130752;28;20035;-54
2022/03/12 04:32:13;;;;;;;2.35;1.48;;;;;;;21.45;nan;99168.56;5130686;28;20039;-53
2022/03/12 04:34:39;;;;;;;2.25;1.55;;;;;;;21.46;nan;99173.72;5130593;28;20039;-54
2022/03/12 04:37:04;;;;;;;2.42;1.55;;;;;;;21.47;nan;99177.31;5130846;28;20050;-53
2022/03/12 04:39:30;;;;;;;2.72;1.60;;;;;;;21.47;nan;99178.09;5130906;28;20039;-51
2022/03/12 04:41:56;;;;;;;3.10;1.90;;;;;;;21.48;nan;99174.13;5130221;27;20486;-54
2022/03/12 04:44:22;;;;;;;2.42;1.50;;;;;;;21.47;nan;99178.09;5130573;28;20407;-54
2022/03/12 04:46:48;;;;;;;2.50;1.65;;;;;;;21.45;nan;99174.91;5130534;28;20043;-55
2022/03/12 04:49:14;;;;;;;3.22;2.00;;;;;;;21.50;nan;99173.75;5130589;28;20035;-53
2022/03/12 04:51:39;;;;;;;2.97;1.77;;;;;;;21.42;nan;99165.34;5130485;28;20491;-54
2022/03/12 04:54:05;;;;;;;2.90;1.90;;;;;;;21.50;nan;99176.53;5130387;28;20492;-53
2022/03/12 04:56:31;;;;;;;2.50;1.75;;;;;;;21.50;nan;99187.66;5130981;28;20040;-53
2022/03/12 04:58:56;;;;;;;2.97;1.92;;;;;;;21.50;nan;99187.66;5130605;28;20062;-54
2022/03/12 05:01:25;;;;;;;2.72;1.85;;;;;;;21.49;nan;99194.41;5130562;28;20176;-54
2022/03/12 05:03:52;;;;;;;2.83;1.83;;;;;;;21.50;nan;99184.88;5130428;28;20488;-53
2022/03/12 05:06:18;;;;;;;2.85;1.80;;;;;;;21.51;nan;99186.50;5130455;28;20419;-55
2022/03/12 05:08:44;;;;;;;2.45;1.65;;;;;;;21.52;nan;99188.09;5130392;28;20353;-53
2022/03/12 05:11:10;;;;;;;2.60;1.67;;;;;;;21.51;nan;99189.28;5130279;28;20043;-52
2022/03/12 05:13:36;;;;;;;2.95;1.70;;;;;;;21.49;nan;99195.19;5130118;28;20050;-54
2022/03/12 05:16:05;;;;;;;2.35;1.60;;;;;;;21.49;nan;99195.19;5130183;28;20047;-53
2022/03/12 05:18:32;;;;;;;2.42;1.60;;;;;;;21.50;nan;99190.44;5130434;28;20047;-55
2022/03/12 05:20:57;;;;;;;2.50;1.60;;;;;;;21.51;nan;99198.41;5130316;28;20265;-53
2022/03/12 05:23:23;;;;;;;2.63;1.55;;;;;;;21.51;nan;99197.63;5130271;28;20057;-51
2022/03/12 05:25:50;;;;;;;2.15;1.30;;;;;;;21.49;nan;99195.19;5129955;28;20055;-52
2022/03/12 05:28:22;;;;;;;2.42;1.60;;;;;;;21.47;nan;99192.00;5130196;28;20039;-54
2022/03/12 05:30:49;;;;;;;2.35;1.40;;;;;;;21.49;nan;99195.19;5130308;28;20469;-54
2022/03/12 05:33:16;;;;;;;2.53;1.60;;;;;;;21.49;nan;99200.78;5129942;28;20043;-53
2022/03/12 05:35:46;;;;;;;2.40;1.50;;;;;;;21.52;nan;99204.78;5130152;28;20035;-55
2022/03/12 05:38:12;;;;;;;2.08;1.30;;;;;;;21.50;nan;99201.56;5129969;28;20138;-54
2022/03/12 05:40:40;;;;;;;1.90;1.23;;;;;;;21.50;nan;99205.16;5129953;28;20058;-52
2022/03/12 05:43:12;;;;;;;2.20;1.35;;;;;;;21.50;nan;99205.16;5130059;28;20035;-52
2022/03/12 05:45:38;;;;;;;2.38;1.38;;;;;;;21.51;nan;99209.56;5129949;28;20481;-51
2022/03/12 05:48:08;;;;;;;2.72;1.40;;;;;;;21.53;nan;99211.94;5129778;28;20561;-54
2022/03/12 05:50:34;;;;;;;2.03;1.30;;;;;;;21.52;nan;99210.34;5129653;28;20054;-53
2022/03/12 05:53:01;;;;;;;2.05;1.35;;;;;;;21.51;nan;99214.31;5129638;27;20047;-52
2022/03/12 05:55:27;;;;;;;2.45;1.52;;;;;;;21.52;nan;99227.84;5132337;28;20408;-54
2022/03/12 05:57:52;;;;;;;1.90;1.25;;;;;;;21.53;nan;99228.66;5133296;28;20049;-54
2022/03/12 06:00:18;;;;;;;1.85;1.20;;;;;;;21.52;nan;99230.63;5133214;28;20041;-53
2022/03/12 06:02:51;;;;;;;2.50;1.40;;;;;;;21.53;nan;99229.44;5133295;28;20383;-53
2022/03/12 06:05:21;;;;;;;1.92;1.10;;;;;;;21.52;nan;99233.41;5133220;28;20078;-52
2022/03/12 06:07:48;;;;;;;2.30;1.42;;;;;;;21.53;nan;99225.88;5133416;28;20035;-54
2022/03/12 06:10:19;;;;;;;1.88;1.30;;;;;;;21.54;nan;99233.03;5133077;28;20074;-52
2022/03/12 06:12:45;;;;;;;2.00;1.17;;;;;;;21.53;nan;99237.00;5133111;28;20415;-54
2022/03/12 06:15:14;;;;;;;1.67;1.17;;;;;;;21.55;nan;99240.19;5133057;28;20049;-53
2022/03/12 06:17:40;;;;;;;1.48;1.08;;;;;;;21.54;nan;99235.81;5133094;28;20096;-53
2022/03/12 06:20:10;;;;;;;1.73;1.10;;;;;;;21.53;nan;99240.56;5133049;28;20039;-54
2022/03/12 06:22:37;;;;;;;2.00;1.10;;;;;;;21.55;nan;99242.97;5133003;28;20058;-53
2022/03/12 06:25:05;;;;;;;1.63;1.10;;;;;;;21.54;nan;99247.72;5132921;28;20051;-53
2022/03/12 06:27:30;;;;;;;1.88;1.15;;;;;;;21.55;nan;99248.53;5132752;28;20130;-53
2022/03/12 06:29:56;;;;;;;1.38;0.95;;;;;;;21.55;nan;99238.19;5132624;28;20130;-54
2022/03/12 06:32:22;;;;;;;1.92;1.27;;;;;;;21.56;nan;99247.34;5132688;28;20444;-53
2022/03/12 06:34:48;;;;;;;1.88;1.25;;;;;;;21.55;nan;99246.53;5132590;28;20050;-54
2022/03/12 06:37:13;;;;;;;2.00;1.30;;;;;;;21.56;nan;99247.34;5132760;28;20122;-52
2022/03/12 06:39:39;;;;;;;1.80;1.10;;;;;;;21.56;nan;99244.56;5132692;28;20103;-54
2022/03/12 06:42:05;;;;;;;2.10;1.30;;;;;;;21.56;nan;99244.56;5104877;28;20406;-54
2022/03/12 06:44:36;;;;;;;2.03;1.30;;;;;;;21.56;nan;99247.34;5132594;28;20039;-54
2022/03/12 06:47:07;;;;;;;1.70;1.10;;;;;;;21.55;nan;99249.34;5132869;28;20073;-52
2022/03/12 06:49:33;;;;;;;2.40;1.40;;;;;;;21.56;nan;99248.13;5132298;28;20580;-54
2022/03/12 06:51:58;;;;;;;1.77;1.10;;;;;;;21.57;nan;99252.53;5132250;28;20051;-53
2022/03/12 06:54:25;;;;;;;2.38;1.42;;;;;;;21.55;nan;99260.47;5131726;28;20558;-55
2022/03/12 06:56:51;;;;;;;2.20;1.40;;;;;;;21.56;nan;99250.94;5132353;28;20411;-54
2022/03/12 06:59:16;;;;;;;2.08;1.20;;;;;;;21.56;nan;99255.69;5132357;28;20533;-51
2022/03/12 07:01:42;;;;;;;2.30;1.30;;;;;;;21.56;nan;99255.69;5132233;28;20085;-54
2022/03/12 07:04:08;;;;;;;2.05;1.10;;;;;;;21.56;nan;99258.47;5132198;28;20055;-54
2022/03/12 07:06:34;;;;;;;2.40;1.40;;;;;;;21.55;nan;99251.31;5131805;27;20043;-54
2022/03/12 07:09:00;;;;;;;1.92;1.17;;;;;;;21.54;nan;99258.06;5132159;28;20061;-54
2022/03/12 07:11:26;;;;;;;1.60;1.10;;;;;;;21.55;nan;99262.44;5131972;28;20046;-52
2022/03/12 07:13:51;;;;;;;1.80;1.10;;;;;;;21.56;nan;99258.47;5132148;28;20069;-54
2022/03/12 07:16:17;;;;;;;1.67;1.08;;;;;;;21.56;nan;99261.25;5132013;28;20081;-54
2022/03/12 07:18:43;;;;;;;2.20;1.40;;;;;;;21.53;nan;99257.28;5132017;28;20035;-53
2022/03/12 07:21:08;;;;;;;1.88;1.17;;;;;;;21.56;nan;99264.03;5132175;28;20035;-52
2022/03/12 07:23:34;;;;;;;2.08;1.20;;;;;;;21.56;nan;99266.81;5131912;28;20084;-56
2022/03/12 07:26:00;;;;;;;1.83;1.17;;;;;;;21.56;nan;99266.81;5131904;28;20077;-52
2022/03/12 07:28:27;;;;;;;2.30;1.40;;;;;;;21.56;nan;99270.41;5131901;28;20051;-54
2022/03/12 07:30:53;;;;;;;2.25;1.30;;;;;;;21.56;nan;99277.97;5131799;28;20043;-53
2022/03/12 07:33:19;;;;;;;2.58;1.58;;;;;;;21.53;nan;99276.75;5131927;28;20053;-53
2022/03/12 07:35:44;;;;;;;1.88;1.13;;;;;;;21.54;nan;99264.44;5131814;28;20043;-55
2022/03/12 07:38:10;;;;;;;2.30;1.25;;;;;;;21.54;nan;99277.56;5131669;28;20514;-56
2022/03/12 07:40:35;;;;;;;2.70;1.67;;;;;;;21.56;nan;99277.97;5132070;28;20043;-55
2022/03/12 07:43:01;;;;;;;2.65;1.65;;;;;;;21.55;nan;99282.72;5131860;28;20559;-54
2022/03/12 07:45:27;;;;;;;2.42;1.50;;;;;;;21.54;nan;99281.13;5131785;28;20103;-55
2022/03/12 07:47:52;;;;;;;2.40;1.73;;;;;;;21.53;nan;99279.53;5131664;28;20512;-54
2022/03/12 07:50:18;;;;;;;2.60;1.70;;;;;;;21.54;nan;99285.91;5131444;28;20515;-53
2022/03/12 07:52:45;;;;;;;2.65;1.70;;;;;;;21.53;nan;99282.31;5131394;28;20528;-52
2022/03/12 07:55:12;;;;;;;2.58;1.65;;;;;;;21.53;nan;99287.09;5131190;28;20050;-54
2022/03/12 07:57:39;;;;;;;2.10;1.42;;;;;;;21.53;nan;99284.31;5131449;28;20426;-55
2022/03/12 08:00:07;;;;;;;1.77;1.25;;;;;;;21.52;nan;99280.72;5131421;28;20057;-54
2022/03/12 08:02:33;;;;;;;2.20;1.35;;;;;;;21.52;nan;99280.72;5131027;28;20122;-54
2022/03/12 08:04:58;;;;;;;2.40;1.60;;;;;;;21.53;nan;99278.75;5131329;28;20652;-53
2022/03/12 08:07:25;;;;;;;2.70;1.40;;;;;;;21.53;nan;99275.94;5131558;28;20506;-53
2022/03/12 08:09:55;;;;;;;2.20;1.50;;;;;;;21.51;nan;99270.78;5131292;28;20038;-54
2022/03/12 08:12:24;;;;;;;2.45;1.50;;;;;;;21.54;nan;99277.56;5131183;28;20381;-55
2022/03/12 08:14:50;;;;;;;1.85;1.33;;;;;;;21.51;nan;99275.53;5130204;28;20518;-54
2022/03/12 08:17:17;;;;;;;2.22;1.27;;;;;;;21.53;nan;99276.75;5130107;27;20051;-53
2022/03/12 08:19:43;;;;;;;2.33;1.50;;;;;;;21.48;nan;99277.09;5130990;28;20046;-54
2022/03/12 08:22:09;;;;;;;2.13;1.40;;;;;;;21.50;nan;99277.50;5130928;28;20532;-55
2022/03/12 08:24:34;;;;;;;2.33;1.58;;;;;;;21.49;nan;99287.03;5131004;28;20066;-54
2022/03/12 08:26:59;;;;;;;2.20;1.40;;;;;;;21.51;nan;99283.91;5128852;28;20099;-54
2022/03/12 08:29:25;;;;;;;2.20;1.35;;;;;;;21.50;nan;99285.06;5130999;28;20042;-55
2022/03/12 08:31:51;;;;;;;2.50;1.40;;;;;;;21.50;nan;99285.06;5130877;28;20035;-53
2022/03/12 08:34:16;;;;;;;2.22;1.35;;;;;;;21.49;nan;99272.31;5130952;28;20422;-54
2022/03/12 08:36:45;;;;;;;2.10;1.27;;;;;;;21.44;nan;99270.72;5130774;28;20050;-53
2022/03/12 08:39:13;;;;;;;1.90;1.20;;;;;;;21.48;nan;99270.72;5130845;28;20087;-54
2022/03/12 08:41:39;;;;;;;1.90;1.25;;;;;;;21.49;nan;99269.53;5130755;28;20523;-53
2022/03/12 08:44:06;;;;;;;2.13;1.40;;;;;;;21.50;nan;99271.94;5130660;28;20062;-55
2022/03/12 08:46:35;;;;;;;2.40;1.40;;;;;;;21.49;nan;99270.34;5130585;28;20069;-54
2022/03/12 08:49:00;;;;;;;1.85;1.20;;;;;;;21.50;nan;99273.91;5130528;28;20555;-54
2022/03/12 08:51:26;;;;;;;2.53;1.58;;;;;;;21.49;nan;99277.88;5130582;28;20043;-54
2022/03/12 08:53:51;;;;;;;2.40;1.45;;;;;;;21.47;nan;99269.94;5130362;28;20040;-52
2022/03/12 08:56:17;;;;;;;2.25;1.40;;;;;;;21.47;nan;99266.34;5130408;28;20043;-52
2022/03/12 08:58:42;;;;;;;2.47;1.55;;;;;;;21.47;nan;99266.34;5130599;28;20039;-55
2022/03/12 09:01:08;;;;;;;2.08;1.20;;;;;;;21.47;nan;99274.69;5130395;28;20503;-53
2022/03/12 09:03:35;;;;;;;2.65;1.50;;;;;;;21.46;nan;99273.09;5130199;28;20484;-55
2022/03/12 09:06:02;;;;;;;1.67;1.10;;;;;;;21.45;nan;99260.38;5130643;28;20049;-51
2022/03/12 09:08:27;;;;;;;2.40;1.40;;;;;;;21.42;nan;99262.72;5130552;28;20556;-54
2022/03/12 09:10:55;;;;;;;2.20;1.58;;;;;;;21.45;nan;99260.38;5130746;28;20051;-53
2022/03/12 09:13:20;;;;;;;2.25;1.48;;;;;;;21.46;nan;99262.75;5130413;28;20047;-54
2022/03/12 09:15:46;;;;;;;2.45;1.52;;;;;;;21.45;nan;99258.38;5130369;28;20048;-52
2022/03/12 09:18:13;;;;;;;2.60;1.58;;;;;;;21.45;nan;99252.81;5130549;28;20044;-52
2022/03/12 09:20:43;;;;;;;2.13;1.30;;;;;;;21.43;nan;99241.25;5130253;28;20043;-52
2022/03/12 09:23:10;;;;;;;2.10;1.20;;;;;;;21.41;nan;99247.22;5130278;28;20043;-53
2022/03/12 09:25:35;;;;;;;1.52;1.05;;;;;;;21.43;nan;99244.88;5130313;28;20035;-55
2022/03/12 09:28:01;;;;;;;2.05;1.30;;;;;;;21.44;nan;99242.88;5130895;27;20045;-53
2022/03/12 09:30:26;;;;;;;2.10;1.30;;;;;;;21.42;nan;99248.81;5133853;28;20081;-52
2022/03/12 09:32:53;;;;;;;2.10;1.30;;;;;;;21.43;nan;99244.03;5133867;28;20115;-53
2022/03/12 09:35:19;;;;;;;2.00;1.35;;;;;;;21.41;nan;99247.22;5133766;28;20567;-53
2022/03/12 09:37:45;;;;;;;2.15;1.40;;;;;;;21.41;nan;99246.41;5131613;28;20047;-53
2022/03/12 09:40:11;;;;;;;2.10;1.38;;;;;;;21.42;nan;99239.66;5133922;28;20043;-53
2022/03/12 09:42:37;;;;;;;2.03;1.27;;;;;;;21.39;nan;99244.03;5133847;28;20518;-54
2022/03/12 09:45:04;;;;;;;2.10;1.35;;;;;;;21.42;nan;99234.09;5133707;28;20035;-52
2022/03/12 09:47:30;;;;;;;2.08;1.30;;;;;;;21.40;nan;99237.28;5133716;28;20055;-53
2022/03/12 09:49:56;;;;;;;2.45;1.48;;;;;;;21.39;nan;99230.09;5133670;28;20422;-54
2022/03/12 09:52:21;;;;;;;1.67;1.08;;;;;;;21.39;nan;99235.66;5133670;28;20148;-54
2022/03/12 09:54:49;;;;;;;1.95;1.23;;;;;;;21.39;nan;99227.31;5132261;28;20346;-54
2022/03/12 09:57:14;;;;;;;1.88;1.20;;;;;;;21.39;nan;99224.53;5133489;28;20127;-53
2022/03/12 09:59:40;;;;;;;1.67;1.20;;;;;;;21.38;nan;99216.59;5133591;28;20530;-54
2022/03/12 10:02:05;;;;;;;2.55;1.58;;;;;;;21.38;nan;99222.94;5133170;27;20508;-51
2022/03/12 10:04:31;;;;;;;2.50;1.42;;;;;;;21.38;nan;99217.38;5133422;28;20236;-53
2022/03/12 10:06:58;;;;;;;2.28;1.35;;;;;;;21.35;nan;99204.22;5133465;28;20449;-53
2022/03/12 10:09:24;;;;;;;2.50;1.33;;;;;;;21.37;nan;99218.56;5133480;27;20134;-54
2022/03/12 10:11:52;;;;;;;2.30;1.40;;;;;;;21.39;nan;99212.63;5133282;28;20130;-53
2022/03/12 10:14:18;;;;;;;2.47;1.50;;;;;;;21.39;nan;99201.50;5133220;28;20591;-54
2022/03/12 10:16:44;;;;;;;2.47;1.48;;;;;;;21.38;nan;99192.34;5133125;28;20074;-54
2022/03/12 10:19:09;;;;;;;2.72;1.50;;;;;;;21.38;nan;99197.09;5133329;28;20134;-54
2022/03/12 10:21:42;;;;;;;2.75;1.40;;;;;;;21.36;nan;99197.50;5133207;27;20092;-54
2022/03/12 10:24:10;;;;;;;3.72;1.70;;;;;;;21.38;nan;99200.69;5133132;27;20050;-52
2022/03/12 10:26:35;;;;;;;2.63;1.60;;;;;;;21.38;nan;99199.91;5133036;28;20047;-52
2022/03/12 10:29:01;;;;;;;2.90;1.85;;;;;;;21.39;nan;99196.72;5133066;28;20054;-53
2022/03/12 10:31:27;;;;;;;2.60;1.77;;;;;;;21.38;nan;99197.91;5132973;28;20043;-53
2022/03/12 10:33:52;;;;;;;2.38;1.45;;;;;;;21.36;nan;99186.38;5132626;28;20105;-54
2022/03/12 10:36:18;;;;;;;2.70;1.75;;;;;;;21.37;nan;99187.97;5132950;28;20043;-54
2022/03/12 10:38:49;;;;;;;2.50;1.48;;;;;;;21.37;nan;99187.97;5133099;28;20039;-54
2022/03/12 10:41:16;;;;;;;2.60;1.63;;;;;;;21.37;nan;99187.97;5132144;27;20411;-54
2022/03/12 10:43:47;;;;;;;3.10;2.00;;;;;;;21.36;nan;99186.38;5132858;28;20047;-54
2022/03/12 10:46:27;;;;;;;2.15;1.38;;;;;;;21.36;nan;99180.81;5130670;28;20604;-55
2022/03/12 10:48:57;;;;;;;2.30;1.50;;;;;;;21.38;nan;99184.00;5132040;28;20970;-55
2022/03/12 10:51:28;;;;;;;2.50;1.70;;;;;;;21.37;nan;99181.59;5132778;28;20189;-55
2022/03/12 10:54:07;;;;;;;2.65;1.80;;;;;;;21.35;nan;99176.41;5132541;27;20134;-55
2022/03/12 10:56:43;;;;;;;2.42;1.50;;;;;;;21.35;nan;99172.81;5131159;28;20076;-53
2022/03/12 10:59:19;;;;;;;2.65;1.70;;;;;;;21.37;nan;99159.34;5132467;28;20051;-53
2022/03/12 11:01:50;;;;;;;2.60;1.70;;;;;;;21.34;nan;99157.31;5130634;28;20050;-55
2022/03/12 11:04:27;;;;;;;3.00;1.67;;;;;;;21.36;nan;99157.72;5132510;28;20047;-54
2022/03/12 11:06:55;;;;;;;2.40;1.50;;;;;;;21.36;nan;99146.59;5132208;28;20039;-54
2022/03/12 11:09:36;;;;;;;2.70;1.65;;;;;;;21.34;nan;99144.19;5132074;27;20047;-54
2022/03/12 11:12:08;;;;;;;2.63;1.70;;;;;;;21.37;nan;99142.66;5130435;28;20128;-54
2022/03/12 11:14:34;;;;;;;2.47;1.70;;;;;;;21.37;nan;99142.66;5132068;28;20043;-53
2022/03/12 11:17:02;;;;;;;2.83;1.90;;;;;;;21.32;nan;99129.88;5131925;28;20422;-54
2022/03/12 11:19:41;;;;;;;2.83;1.88;;;;;;;21.36;nan;99136.28;5132277;28;20833;-55
2022/03/12 11:22:10;;;;;;;2.70;1.80;;;;;;;21.36;nan;99129.91;5132264;28;20050;-55
2022/03/12 11:24:45;;;;;;;2.50;1.73;;;;;;;21.35;nan;99126.31;5132200;28;20042;-54
2022/03/12 11:27:21;;;;;;;2.60;1.80;;;;;;;21.34;nan;99126.72;5132074;27;20047;-50
2022/03/12 11:29:57;;;;;;;3.67;1.77;;;;;;;21.33;nan;99120.34;5131847;28;20138;-54
2022/03/12 11:32:22;;;;;;;2.60;1.60;;;;;;;21.32;nan;99123.53;5130605;28;20047;-56
2022/03/12 11:34:48;;;;;;;3.13;1.90;;;;;;;21.26;nan;99111.91;5131757;28;20427;-54
2022/03/12 11:37:21;;;;;;;3.20;1.95;;;;;;;21.29;nan;99113.97;5131768;28;20066;-56
2022/03/12 11:39:47;;;;;;;3.20;1.90;;;;;;;21.31;nan;99094.13;5131873;28;20494;-54
2022/03/12 11:42:17;;;;;;;2.50;1.75;;;;;;;21.33;nan;99091.75;5131691;28;20053;-52
2022/03/12 11:44:54;;;;;;;3.05;1.98;;;;;;;21.33;nan;99091.75;5131773;28;20061;-55
2022/03/12 11:47:22;;;;;;;2.58;1.50;;;;;;;21.33;nan;99102.88;5131526;28;20096;-54
2022/03/12 11:49:49;;;;;;;2.50;1.70;;;;;;;21.32;nan;99095.72;5131644;27;20464;-54
2022/03/12 11:52:16;;;;;;;2.75;1.50;;;;;;;21.32;nan;99090.94;5130249;27;20043;-53